Latest Weather Observations for Witchcliffe

IDW60801

Issued at 8:05 am WST Saturday 25 October 2014 (issued every 30 minutes, with the page automatically refreshed every 10 minutes)

About weather observations | Map of weather stations | Latest weather observations for WA | Other Formats
Station Details ID: 009746 Name: WITCHCLIFFE Lat: -34.03 Lon: 115.10 Height: 80.0 m
Data from the previous 72 hours. | See also: Recent months at Witchcliffe
Date/Time
WST
Temp
°C
App
Temp
°C
Dew
Point
Rel
Hum
%
Delta-T
°C
Wind Press
QNH
hPa
Press
MSL
hPa
Rain
since 9 am
mm
Dir
 
Spd
km/h
Gust
km/h
Spd
kts
Gust
kts
25/08:00am 17.9 15.0 12.4 70 3.1 WNW 19 32 10 17 1015.8 1015.8 0.2
25/07:30am 17.7 15.7 12.6 72 2.8 WNW 15 20 8 11 1015.6 1015.6 0.2
25/07:00am 17.0 15.8 12.7 76 2.4 WNW 11 17 6 9 1015.6 1015.6 0.2
25/06:30am 15.4 14.8 12.2 81 1.8 NW 7 11 4 6 1015.4 1015.4 0.2
25/06:00am 14.7 13.6 12.0 84 1.5 WNW 9 13 5 7 1015.1 1015.1 0.2
25/05:30am 14.7 13.6 11.8 83 1.6 WNW 9 13 5 7 1014.9 1014.9 0.2
25/05:00am 14.8 13.9 12.7 87 1.2 WNW 9 15 5 8 1014.8 1014.8 0.2
25/04:30am 14.8 14.7 13.8 94 0.6 WNW 7 9 4 5 1014.5 1014.5 0.2
25/04:00am 15.3 15.6 15.1 99 0.1 NW 7 13 4 7 1014.4 1014.4 0.2
25/03:30am 15.5 15.5 15.3 99 0.1 W 9 15 5 8 1014.2 1014.2 0.2
25/03:00am 15.0 15.3 15.0 100 0.0 W 7 9 4 5 1014.2 1014.2 0.2
25/02:30am 14.1 15.0 14.1 100 0.0 N 2 7 1 4 1014.3 1014.3 0.2
25/02:00am 13.9 15.1 13.9 100 0.0 CALM 0 7 0 4 1014.3 1014.3 0.2
25/01:30am 13.0 13.9 13.0 100 0.0 CALM 0 0 0 0 1014.2 1014.2 0.2
25/01:00am 13.5 13.8 13.5 100 0.0 NNE 4 7 2 4 1014.3 1014.3 0.2
25/12:30am 13.5 14.5 13.3 99 0.1 CALM 0 0 0 0 1014.5 1014.5 0.2
25/12:00am 13.8 13.8 13.6 99 0.1 N 6 6 3 3 1014.7 1014.7 0.2
 
Date/Time
WST
Temp
°C
App
Temp
°C
Dew
Point
Rel
Hum
%
Delta-T
°C
Wind Press
QNH
hPa
Press
MSL
hPa
Rain
since 9 am
mm
Dir
 
Spd
km/h
Gust
km/h
Spd
kts
Gust
kts
24/11:30pm 13.9 15.1 13.7 99 0.1 CALM 0 0 0 0 1014.9 1014.9 0.2
24/11:00pm 14.0 15.2 13.8 99 0.1 CALM 0 0 0 0 1015.1 1015.1 0.2
24/10:30pm 14.3 15.6 14.1 99 0.1 CALM 0 6 0 3 1015.5 1015.5 0.2
24/10:00pm 14.0 14.1 13.8 99 0.1 N 6 9 3 5 1015.5 1015.5 0.2
24/09:30pm 14.4 15.7 14.2 99 0.1 CALM 0 0 0 0 1016.1 1016.1 0.2
24/09:00pm 14.3 15.6 14.1 99 0.1 CALM 0 0 0 0 1016.0 1016.0 0.2
24/08:30pm 14.6 15.9 14.0 96 0.3 CALM 0 0 0 0 1015.8 1015.8 0.2
24/08:00pm 14.8 16.0 13.7 93 0.6 CALM 0 0 0 0 1015.7 1015.7 0.2
24/07:30pm 15.4 16.7 14.1 92 0.7 CALM 0 6 0 3 1015.7 1015.7 0.2
24/07:00pm 15.7 15.7 13.5 87 1.2 NNE 6 7 3 4 1015.5 1015.5 0.2
24/06:30pm 17.0 16.6 13.1 78 2.2 NNW 7 9 4 5 1015.6 1015.6 0.2
24/06:00pm 17.7 16.6 13.0 74 2.6 NW 11 17 6 9 1015.7 1015.7 0.2
24/05:30pm 18.4 17.1 12.6 69 3.2 WNW 11 19 6 10 1015.6 1015.6 0.2
24/05:00pm 19.4 17.6 12.2 63 4.0 NW 13 20 7 11 1015.5 1015.5 0.2
24/04:30pm 19.3 16.3 12.1 63 4.0 NW 19 30 10 16 1015.5 1015.5 0.2
24/04:00pm 19.2 16.1 11.7 62 4.1 NW 19 26 10 14 1015.7 1015.7 0.2
24/03:30pm 19.7 16.9 11.2 58 4.7 NW 17 26 9 14 1015.6 1015.6 0.2
24/03:00pm 19.8 16.5 11.0 57 4.8 WNW 19 28 10 15 1015.6 1015.6 0.2
24/02:30pm 20.7 17.3 10.5 52 5.6 WNW 19 22 10 12 1015.6 1015.6 0.2
24/02:00pm 20.8 17.4 10.6 52 5.6 NW 19 24 10 13 1015.8 1015.8 0.2
24/01:30pm 19.8 17.0 11.3 58 4.7 NNW 17 22 9 12 1016.1 1016.1 0.2
24/01:00pm 19.6 17.1 11.1 58 4.7 N 15 24 8 13 1016.4 1016.4 0.2
24/12:30pm 19.6 17.6 11.4 59 4.5 NNW 13 20 7 11 1016.5 1016.5 0.2
24/12:00pm 20.0 16.7 11.7 59 4.6 NNE 20 28 11 15 1016.9 1016.9 0.2
24/11:30am 18.9 15.5 10.7 59 4.4 N 19 28 10 15 1017.2 1017.2 0.2
24/11:00am 19.3 16.7 12.1 63 4.0 N 17 22 9 12 1017.6 1017.6 0.0
24/10:30am 18.5 15.6 11.1 62 4.0 N 17 24 9 13 1017.9 1017.9 0.0
24/10:00am 18.6 16.6 12.6 68 3.4 N 15 22 8 12 1018.2 1018.2 0.0
24/09:30am 17.1 15.1 11.6 70 3.0 N 13 20 7 11 1018.3 1018.3 0.0
24/09:00am 17.0 15.4 12.7 76 2.4 ENE 13 19 7 10 1018.0 1018.0 0.0
24/08:30am 15.6 13.9 12.5 82 1.7 NE 13 22 7 12 1018.3 1018.3 0.0
24/08:00am 14.1 14.3 14.1 100 0.0 E 6 9 3 5 1018.5 1018.5 0.0
24/07:30am 13.5 13.5 13.5 100 0.0 E 6 9 3 5 1018.4 1018.4 0.0
24/07:00am 12.8 13.7 12.8 100 0.0 CALM 0 0 0 0 1018.1 1018.1 0.0
24/06:30am 12.2 12.9 12.2 100 0.0 CALM 0 0 0 0 1017.9 1017.9 0.0
24/06:00am 12.0 12.6 12.0 100 0.0 CALM 0 0 0 0 1018.1 1018.1 0.0
24/05:30am 12.0 12.6 12.0 100 0.0 CALM 0 0 0 0 1017.9 1017.9 0.0
24/05:00am 11.9 12.5 11.9 100 0.0 CALM 0 0 0 0 1018.0 1018.0 0.0
24/04:30am 11.4 11.8 11.4 100 0.0 CALM 0 0 0 0 1017.7 1017.7 0.0
24/04:00am 11.8 12.4 11.8 100 0.0 CALM 0 0 0 0 1017.9 1017.9 0.0
24/03:30am 12.0 12.6 12.0 100 0.0 CALM 0 0 0 0 1018.1 1018.1 0.0
24/03:00am 12.3 13.0 12.3 100 0.0 CALM 0 6 0 3 1018.4 1018.4 0.0
24/02:30am 12.5 13.3 12.5 100 0.0 CALM 0 6 0 3 1018.3 1018.3 0.0
24/02:00am 12.6 13.4 12.6 100 0.0 CALM 0 6 0 3 1018.5 1018.5 0.0
24/01:30am 12.9 12.7 12.9 100 0.0 E 6 9 3 5 1018.5 1018.5 0.0
24/01:00am 13.0 13.9 13.0 100 0.0 CALM 0 0 0 0 1018.6 1018.6 0.0
24/12:30am 12.9 13.8 12.9 100 0.0 CALM 0 6 0 3 1018.8 1018.8 0.0
24/12:00am 13.2 14.2 13.2 100 0.0 CALM 0 0 0 0 1018.8 1018.8 0.0
 
Date/Time
WST
Temp
°C
App
Temp
°C
Dew
Point
Rel
Hum
%
Delta-T
°C
Wind Press
QNH
hPa
Press
MSL
hPa
Rain
since 9 am
mm
Dir
 
Spd
km/h
Gust
km/h
Spd
kts
Gust
kts
23/11:30pm 13.2 14.2 13.2 100 0.0 CALM 0 0 0 0 1018.8 1018.8 0.0
23/11:00pm 12.8 13.7 12.8 100 0.0 CALM 0 0 0 0 1018.9 1018.9 0.0
23/10:30pm 12.4 13.1 12.2 99 0.1 CALM 0 0 0 0 1019.0 1019.0 0.0
23/10:00pm 11.9 12.4 11.7 99 0.1 CALM 0 0 0 0 1019.1 1019.1 0.0
23/09:30pm 12.5 13.2 12.3 99 0.1 CALM 0 0 0 0 1019.1 1019.1 0.0
23/09:00pm 12.9 13.7 12.7 99 0.1 CALM 0 0 0 0 1019.2 1019.2 0.0
23/08:30pm 13.9 13.4 13.7 99 0.1 S 9 11 5 6 1019.1 1019.1 0.0
23/08:00pm 14.4 14.0 14.2 99 0.1 S 9 13 5 7 1019.1 1019.1 0.0
23/07:30pm 14.5 14.4 13.9 96 0.3 SSE 7 11 4 6 1018.6 1018.6 0.0
23/07:00pm 14.6 14.2 13.0 90 0.9 SSE 7 13 4 7 1018.1 1018.1 0.0
23/06:30pm 15.3 14.1 12.8 85 1.4 SSW 11 15 6 8 1017.9 1017.9 0.0
23/06:00pm 16.1 14.3 13.2 83 1.6 SSW 15 22 8 12 1017.6 1017.6 0.0
23/05:30pm 16.3 14.3 13.8 85 1.4 SSW 17 24 9 13 1017.3 1017.3 0.0
23/05:00pm 17.2 15.1 12.5 74 2.6 SSW 15 20 8 11 1017.0 1017.0 0.0
23/04:30pm 17.7 15.3 12.8 73 2.7 S 17 26 9 14 1017.0 1017.0 0.0
23/04:00pm 17.9 15.4 12.4 70 3.1 SSW 17 26 9 14 1016.8 1016.8 0.0
23/03:30pm 19.5 16.8 11.8 61 4.3 SW 17 28 9 15 1016.5 1016.5 0.0
23/03:00pm 19.2 15.9 11.0 59 4.5 SSW 19 30 10 16 1016.4 1016.4 0.0
23/02:30pm 18.7 16.3 12.7 68 3.4 SW 17 30 9 16 1016.6 1016.6 0.0
23/02:00pm 18.2 15.6 12.0 67 3.4 SW 17 28 9 15 1016.5 1016.5 0.0
23/01:30pm 18.3 14.8 10.9 62 4.0 SW 20 32 11 17 1016.3 1016.3 0.0
23/01:00pm 18.2 14.9 11.7 66 3.6 SSW 20 32 11 17 1016.2 1016.2 0.0
23/12:30pm 18.4 14.6 11.0 62 4.0 SSW 22 37 12 20 1015.9 1015.9 0.0
23/12:00pm 18.6 14.9 11.4 63 3.9 SW 22 35 12 19 1015.8 1015.8 0.0
23/11:30am 18.2 14.0 11.0 63 3.9 SW 24 39 13 21 1015.8 1015.8 0.0
23/11:00am 18.2 13.2 10.8 62 4.0 SSW 28 41 15 22 1015.8 1015.8 0.0
23/10:30am 18.0 14.5 12.2 69 3.2 SW 22 35 12 19 1015.7 1015.7 0.0
23/10:00am 17.9 15.0 13.0 73 2.8 SW 20 37 11 20 1015.3 1015.3 0.0
23/09:30am 17.5 14.6 14.0 80 2.0 SW 22 37 12 20 1014.9 1014.9 0.0
23/09:00am 16.8 14.8 15.0 89 1.0 SW 19 30 10 16 1014.6 1014.6 4.0
23/08:30am 17.3 14.8 15.1 87 1.3 SW 22 35 12 19 1014.0 1014.0 4.0
23/08:00am 16.5 15.0 15.4 93 0.6 SW 17 32 9 17 1013.6 1013.6 4.0
23/07:30am 15.9 14.2 15.7 99 0.1 SW 19 33 10 18 1013.0 1012.9 4.0
23/07:00am 15.7 14.7 15.5 99 0.1 W 15 20 8 11 1012.6 1012.5 3.8
23/06:30am 16.1 14.5 15.1 94 0.6 W 17 30 9 16 1012.3 1012.2 0.6
23/06:00am 16.4 14.1 14.2 87 1.3 W 19 28 10 15 1012.0 1011.9 0.0
23/05:30am 16.4 14.6 14.4 88 1.1 W 17 28 9 15 1011.8 1011.7 0.0
23/05:00am 16.4 14.5 14.2 87 1.3 W 17 26 9 14 1011.6 1011.5 0.0
23/04:30am 16.4 15.1 13.7 84 1.5 WNW 13 19 7 10 1011.4 1011.3 0.0
23/04:00am 16.2 14.8 13.5 84 1.5 WNW 13 22 7 12 1011.4 1011.3 0.0
23/03:30am 15.8 14.1 13.5 86 1.3 NW 15 19 8 10 1011.1 1011.0 0.0
23/03:00am 15.8 14.5 13.6 87 1.2 NW 13 19 7 10 1011.0 1010.9 0.0
23/02:30am 16.1 14.9 13.9 87 1.2 NW 13 24 7 13 1011.1 1011.0 0.0
23/02:00am 16.2 15.1 14.4 89 1.0 NW 13 20 7 11 1011.4 1011.3 0.0
23/01:30am 15.9 15.2 15.3 96 0.3 NW 13 20 7 11 1011.6 1011.5 0.0
23/01:00am 15.2 15.1 15.0 99 0.1 NW 9 13 5 7 1011.8 1011.7 0.0
23/12:30am 14.8 14.3 13.7 93 0.6 NNW 9 11 5 6 1011.5 1011.4 0.0
23/12:00am 16.0 15.6 14.2 89 1.0 WNW 9 13 5 7 1012.1 1012.0 0.0
 
Date/Time
WST
Temp
°C
App
Temp
°C
Dew
Point
Rel
Hum
%
Delta-T
°C
Wind Press
QNH
hPa
Press
MSL
hPa
Rain
since 9 am
mm
Dir
 
Spd
km/h
Gust
km/h
Spd
kts
Gust
kts
22/11:30pm 16.7 16.1 14.7 88 1.2 WNW 11 20 6 11 1012.4 1012.3 0.0
22/11:00pm 16.7 15.8 14.9 89 1.0 WNW 13 20 7 11 1012.9 1012.8 0.0
22/10:30pm 16.7 15.7 14.7 88 1.2 WNW 13 19 7 10 1013.0 1012.9 0.0
22/10:00pm 16.9 15.2 14.7 87 1.3 W 17 24 9 13 1012.8 1012.7 0.0
22/09:30pm 16.9 17.0 15.6 92 0.8 NW 9 11 5 6 1013.0 1012.9 0.0
22/09:00pm 17.0 17.5 15.5 91 0.9 W 7 15 4 8 1012.6 1012.5 0.0
22/08:30pm 17.4 16.8 15.6 89 1.1 W 13 19 7 10 1012.4 1012.3 0.0
22/08:00pm 17.8 17.6 15.6 87 1.3 W 11 20 6 11 1012.4 1012.3 0.0
22/07:30pm 18.0 17.3 15.4 85 1.5 W 13 20 7 11 1012.1 1012.0 0.0
22/07:00pm 18.3 17.6 15.4 83 1.7 WNW 13 26 7 14 1011.9 1011.8 0.0
22/06:30pm 18.3 17.5 15.2 82 1.8 WNW 13 20 7 11 1011.6 1011.5 0.0
22/06:00pm 19.1 18.6 15.0 77 2.4 WNW 11 20 6 11 1011.1 1011.0 0.0
22/05:30pm 19.6 16.8 14.4 72 3.0 WNW 22 32 12 17 1010.7 1010.6 0.0
22/05:00pm 20.5 18.0 15.1 71 3.2 WNW 22 33 12 18 1010.0 1009.9 0.0
22/04:30pm 21.6 18.6 13.8 61 4.5 NW 22 35 12 19 1009.8 1009.7 0.0
22/04:00pm 23.3 19.8 12.3 50 6.3 NW 22 32 12 17 1009.8 1009.7 0.0
22/03:30pm 24.3 21.6 13.5 51 6.3 NW 20 32 11 17 1010.1 1010.0 0.0
22/03:00pm 24.1 21.1 14.8 56 5.6 NW 24 33 13 18 1010.4 1010.3 0.0
22/02:30pm 26.4 21.0 12.1 41 8.3 N 32 43 17 23 1010.5 1010.4 0.0
22/02:00pm 26.3 20.2 11.6 40 8.4 N 35 46 19 25 1010.8 1010.7 0.0
22/01:57pm 26.6 20.2 11.9 40 8.5 N 37 46 20 25 1010.8 1010.7 0.0
22/01:30pm 26.9 24.2 12.9 42 8.2 NE 19 28 10 15 1011.2 1011.1 0.0
22/01:00pm 27.3 24.3 12.5 40 8.6 NNE 20 32 11 17 1011.4 1011.3 0.0
22/12:30pm 27.6 24.6 12.4 39 8.9 NE 20 33 11 18 1011.6 1011.5 0.0
22/12:00pm 26.5 23.3 11.8 40 8.5 NE 20 32 11 17 1011.9 1011.8 0.0
22/11:30am 26.2 24.2 14.0 47 7.3 ENE 17 26 9 14 1012.5 1012.4 0.0
22/11:00am 24.5 22.4 13.7 51 6.3 E 17 24 9 13 1013.1 1013.0 0.0
22/10:30am 23.8 21.9 13.1 51 6.2 E 15 22 8 12 1014.0 1014.0 0.0
22/10:00am 22.8 21.5 13.6 56 5.4 E 13 26 7 14 1015.0 1015.0 0.0
22/09:30am 21.0 18.0 12.7 59 4.7 ENE 20 32 11 17 1015.3 1015.3 0.0
22/09:00am 19.7 17.3 12.5 63 4.0 E 17 26 9 14 1015.8 1015.8 0.0
22/08:30am 18.0 16.0 12.7 71 3.0 E 15 20 8 11 1016.0 1016.0 0.0

Other Formats:

Comma delimited format used in spreadsheet applications
http://www.bom.gov.au/fwo/IDW60801/IDW60801.95641.axf

JavaScript Object Notation format (JSON) in row-major order
http://www.bom.gov.au/fwo/IDW60801/IDW60801.95641.json